Time;durP1;ratioP1;P1;durP2;ratioP2;P2;SDS_P1;SDS_P2;PMS_P1;PMS_P2;Temp;Humidity;BMP_temperature;BMP_pressure;BME280_temperature;BME280_humidity;BME280_pressure;Samples;Min_cycle;Max_cycle;Signal;HPM_P1;HPM_P2
2023/01/16 00:01:00;;;;;;;4.27;1.13;;;3.50;99.90;;;;;;4989190;28;20262;-41
2023/01/16 00:03:26;;;;;;;2.57;0.87;;;3.50;99.90;;;;;;4985441;28;20190;-42
2023/01/16 00:05:52;;;;;;;3.67;0.90;;;3.50;99.90;;;;;;4986752;28;20176;-42
2023/01/16 00:08:18;;;;;;;1.63;1.13;;;3.50;99.90;;;;;;4975935;28;20184;-42
2023/01/16 00:10:44;;;;;;;1.87;1.00;;;3.50;99.90;;;;;;4992592;28;20200;-40
2023/01/16 00:13:12;;;;;;;3.50;1.23;;;3.50;99.90;;;;;;4992899;28;20214;-41
2023/01/16 00:15:38;;;;;;;3.43;1.20;;;3.50;99.90;;;;;;4992586;28;20184;-41
2023/01/16 00:18:04;;;;;;;7.57;1.17;;;3.50;99.90;;;;;;4992665;28;20746;-42
2023/01/16 00:20:30;;;;;;;5.83;1.40;;;3.50;99.90;;;;;;4959614;28;20204;-41
2023/01/16 00:22:55;;;;;;;2.97;0.90;;;3.50;99.90;;;;;;4992407;28;20238;-41
2023/01/16 00:25:21;;;;;;;2.53;1.10;;;3.50;99.90;;;;;;4992144;28;20188;-42
2023/01/16 00:27:47;;;;;;;2.03;1.20;;;3.50;99.90;;;;;;4975966;28;20242;-42
2023/01/16 00:30:13;;;;;;;3.43;1.20;;;3.50;99.90;;;;;;4975716;28;20235;-40
2023/01/16 00:32:39;;;;;;;3.47;1.10;;;3.50;99.90;;;;;;4959870;28;20326;-41
2023/01/16 00:35:05;;;;;;;1.80;0.83;;;3.50;99.90;;;;;;4983665;28;20283;-41
2023/01/16 00:37:30;;;;;;;2.40;1.00;;;3.50;99.90;;;;;;4974031;28;20200;-42
2023/01/16 00:39:56;;;;;;;2.53;1.30;;;3.50;99.90;;;;;;4956271;28;20215;-41
2023/01/16 00:42:22;;;;;;;1.60;1.13;;;3.60;99.90;;;;;;4956358;28;20181;-41
2023/01/16 00:44:48;;;;;;;0.83;0.80;;;3.60;99.90;;;;;;4973985;28;20189;-41
2023/01/16 00:47:13;;;;;;;4.53;1.30;;;3.60;99.90;;;;;;4973942;28;20203;-42
2023/01/16 00:49:39;;;;;;;3.20;1.37;;;3.70;99.90;;;;;;4955975;28;20207;-42
2023/01/16 00:52:05;;;;;;;2.70;1.20;;;3.70;99.90;;;;;;4956421;28;20227;-41
2023/01/16 00:54:31;;;;;;;5.27;1.17;;;3.70;99.90;;;;;;4973309;28;20184;-42
2023/01/16 00:56:56;;;;;;;2.43;0.77;;;3.70;99.90;;;;;;4973456;28;20247;-41
2023/01/16 00:59:22;;;;;;;2.27;0.97;;;3.70;99.90;;;;;;4973207;28;20177;-38
2023/01/16 01:01:48;;;;;;;3.30;1.43;;;3.70;99.90;;;;;;4975396;28;20219;-42
2023/01/16 01:04:14;;;;;;;10.27;3.03;;;3.70;99.90;;;;;;4988113;28;20181;-42
2023/01/16 01:06:40;;;;;;;6.73;2.20;;;3.70;99.90;;;;;;4981352;28;20549;-42
2023/01/16 01:09:06;;;;;;;4.23;1.70;;;3.70;99.90;;;;;;4955672;28;20196;-40
2023/01/16 01:11:32;;;;;;;7.40;2.13;;;3.80;99.90;;;;;;4971777;28;20213;-42
2023/01/16 01:13:58;;;;;;;3.30;1.37;;;3.80;99.90;;;;;;4973723;28;20184;-41
2023/01/16 01:16:24;;;;;;;4.93;1.83;;;3.70;99.90;;;;;;4971851;28;20211;-41
2023/01/16 01:18:50;;;;;;;2.70;1.40;;;3.80;99.90;;;;;;4971645;28;20208;-41
2023/01/16 01:21:16;;;;;;;4.27;1.30;;;3.70;99.90;;;;;;4971131;28;20231;-41
2023/01/16 01:23:42;;;;;;;2.23;1.23;;;3.70;99.90;;;;;;4972872;28;20184;-40
2023/01/16 01:26:16;;;;;;;1.70;1.13;;;3.70;99.90;;;;;;4972587;28;20184;-42
2023/01/16 01:28:43;;;;;;;2.83;1.47;;;3.70;99.90;;;;;;4973375;28;20185;-42
2023/01/16 01:31:11;;;;;;;6.63;1.30;;;3.70;99.90;;;;;;4972065;28;20200;-41
2023/01/16 01:33:37;;;;;;;4.27;1.50;;;3.70;99.90;;;;;;4956493;28;20184;-39
2023/01/16 01:36:04;;;;;;;2.03;1.60;;;3.70;99.90;;;;;;4982720;28;20273;-41
2023/01/16 01:38:30;;;;;;;1.60;0.80;;;3.60;99.90;;;;;;4987376;28;20248;-41
2023/01/16 01:40:56;;;;;;;4.27;0.90;;;3.60;99.90;;;;;;4971266;28;20224;-42
2023/01/16 01:43:21;;;;;;;3.20;1.03;;;3.60;99.90;;;;;;4971590;28;20173;-42
2023/01/16 01:45:55;;;;;;;4.30;0.93;;;3.60;99.90;;;;;;4972512;28;20185;-41
2023/01/16 01:48:29;;;;;;;1.87;0.80;;;3.60;99.90;;;;;;4971292;28;20219;-41
2023/01/16 01:51:01;;;;;;;2.20;1.03;;;3.50;99.90;;;;;;4972398;28;20201;-42
2023/01/16 01:53:31;;;;;;;2.93;0.90;;;3.60;99.90;;;;;;4971641;28;20189;-41
2023/01/16 01:56:05;;;;;;;1.17;0.90;;;3.60;99.90;;;;;;4987575;28;20200;-41
2023/01/16 01:58:33;;;;;;;4.20;0.87;;;3.60;99.90;;;;;;4987161;28;20208;-42
2023/01/16 02:01:00;;;;;;;2.77;1.00;;;3.60;99.90;;;;;;4972364;28;20228;-42
2023/01/16 02:03:55;;;;;;;3.17;1.13;;;3.70;99.90;;;;;;4988906;28;20242;-42
2023/01/16 02:06:28;;;;;;;2.40;0.80;;;3.70;99.90;;;;;;4971228;28;20191;-42
2023/01/16 02:08:55;;;;;;;4.60;0.80;;;3.70;99.90;;;;;;4990374;28;20180;-42
2023/01/16 02:11:44;;;;;;;0.97;0.77;;;3.80;99.90;;;;;;4990358;28;20191;-39
2023/01/16 02:14:15;;;;;;;1.87;0.80;;;3.70;99.90;;;;;;4982578;28;20187;-40
2023/01/16 02:19:50;;;;;;;1.57;0.70;;;3.80;99.90;;;;;;4990851;28;20227;-41
2023/01/16 02:22:53;;;;;;;1.67;0.70;;;3.80;99.90;;;;;;4991673;28;20222;-41
2023/01/16 02:25:40;;;;;;;2.77;1.13;;;3.80;99.90;;;;;;4990319;28;20172;-41
2023/01/16 02:28:44;;;;;;;1.97;0.80;;;3.80;99.90;;;;;;4990311;28;20275;-41
2023/01/16 02:31:16;;;;;;;1.97;0.93;;;3.70;99.90;;;;;;4992406;28;20203;-42
2023/01/16 02:33:57;;;;;;;1.27;0.77;;;3.70;99.90;;;;;;4994283;28;20656;-42
2023/01/16 02:36:29;;;;;;;3.53;1.20;;;3.70;99.90;;;;;;4987433;28;20196;-39
2023/01/16 02:38:57;;;;;;;1.70;0.80;;;3.70;99.90;;;;;;4994973;28;20176;-40
2023/01/16 02:41:52;;;;;;;4.23;0.77;;;3.70;99.90;;;;;;4995428;28;20203;-38
2023/01/16 02:44:40;;;;;;;1.50;0.90;;;3.70;99.90;;;;;;4993152;28;20195;-40
2023/01/16 02:47:23;;;;;;;1.70;0.77;;;3.70;99.90;;;;;;4994066;28;20183;-36
2023/01/16 02:50:11;;;;;;;1.87;0.80;;;3.70;99.90;;;;;;4994816;28;20164;-37
2023/01/16 02:52:43;;;;;;;1.00;0.80;;;3.60;99.90;;;;;;4994129;28;20258;-39
2023/01/16 02:55:27;;;;;;;2.20;0.80;;;3.60;99.90;;;;;;4994248;28;20231;-41
2023/01/16 02:57:58;;;;;;;1.73;0.80;;;3.60;99.90;;;;;;4993914;28;20302;-41
2023/01/16 03:00:25;;;;;;;3.37;0.90;;;3.60;99.90;;;;;;4993524;28;20200;-42
2023/01/16 03:02:51;;;;;;;2.70;0.90;;;3.50;99.90;;;;;;4982011;28;20188;-41
2023/01/16 03:05:17;;;;;;;2.63;1.10;;;3.40;99.90;;;;;;4984398;28;20195;-38
2023/01/16 03:08:21;;;;;;;3.07;1.20;;;3.40;99.90;;;;;;4977090;28;20183;-41
2023/01/16 03:11:11;;;;;;;2.47;0.90;;;3.30;99.90;;;;;;4991626;28;20305;-41
2023/01/16 03:13:51;;;;;;;3.17;1.13;;;3.30;99.90;;;;;;4993163;28;20230;-42
2023/01/16 03:16:30;;;;;;;1.87;1.00;;;3.20;99.90;;;;;;4994813;28;20629;-41
2023/01/16 03:19:10;;;;;;;2.90;0.70;;;3.20;99.90;;;;;;4997316;28;20212;-39
2023/01/16 03:21:54;;;;;;;4.33;1.10;;;3.10;99.90;;;;;;4989727;28;20211;-39
2023/01/16 03:24:50;;;;;;;2.47;1.27;;;3.10;99.90;;;;;;4975124;28;20189;-39
2023/01/16 03:27:41;;;;;;;3.60;1.10;;;3.10;99.90;;;;;;4975098;28;20267;-39
2023/01/16 03:30:10;;;;;;;1.87;0.83;;;3.00;99.90;;;;;;4973539;28;20463;-40
2023/01/16 03:32:41;;;;;;;3.00;0.87;;;3.00;99.90;;;;;;4990051;28;20177;-42
2023/01/16 03:35:24;;;;;;;2.20;1.00;;;3.10;99.90;;;;;;4984780;28;20208;-37
2023/01/16 03:37:54;;;;;;;1.33;0.80;;;3.10;99.90;;;;;;4973456;28;20219;-37
2023/01/16 03:40:35;;;;;;;1.80;0.80;;;3.30;99.90;;;;;;4973406;28;20196;-40
2023/01/16 03:43:05;;;;;;;4.93;0.90;;;3.30;99.90;;;;;;4972795;28;20181;-37
2023/01/16 03:45:42;;;;;;;2.50;0.77;;;3.30;99.90;;;;;;4975029;28;20184;-39
2023/01/16 03:48:18;;;;;;;1.80;0.77;;;3.40;99.90;;;;;;4973495;28;20192;-42
2023/01/16 03:50:51;;;;;;;1.50;0.83;;;3.40;99.90;;;;;;4974551;28;20196;-38
2023/01/16 03:53:22;;;;;;;1.57;0.70;;;3.40;99.90;;;;;;4973316;28;20180;-37
2023/01/16 03:55:56;;;;;;;3.00;0.80;;;3.40;99.90;;;;;;4973990;28;20180;-39
2023/01/16 03:58:33;;;;;;;2.13;0.80;;;3.50;99.90;;;;;;4974776;28;20201;-38
2023/01/16 04:01:38;;;;;;;1.43;0.90;;;3.50;99.90;;;;;;4974224;28;20212;-38
2023/01/16 04:04:12;;;;;;;4.53;1.83;;;3.50;99.90;;;;;;4986057;28;20185;-40
2023/01/16 04:06:51;;;;;;;3.23;1.90;;;3.50;99.90;;;;;;4993051;28;20201;-39
2023/01/16 04:09:24;;;;;;;3.80;2.30;;;3.40;99.90;;;;;;4993632;28;20172;-41
2023/01/16 04:11:51;;;;;;;5.17;2.27;;;3.40;99.90;;;;;;4992753;28;20214;-42
2023/01/16 04:14:18;;;;;;;3.00;1.43;;;3.40;99.90;;;;;;4960232;28;20184;-35
2023/01/16 04:16:44;;;;;;;3.53;1.43;;;3.30;99.90;;;;;;4993679;28;20258;-42
2023/01/16 04:19:13;;;;;;;3.77;1.70;;;3.30;99.90;;;;;;4991925;28;20172;-39
2023/01/16 04:21:43;;;;;;;3.83;2.23;;;3.30;99.90;;;;;;4976283;28;20219;-36
2023/01/16 04:24:09;;;;;;;3.37;1.30;;;3.30;99.90;;;;;;4975048;28;20171;-39
2023/01/16 04:26:35;;;;;;;2.50;1.20;;;3.30;99.90;;;;;;4993824;28;20204;-36
2023/01/16 04:29:01;;;;;;;4.10;1.10;;;3.30;99.90;;;;;;4992103;28;20180;-39
2023/01/16 04:31:28;;;;;;;4.20;1.20;;;3.30;99.90;;;;;;4993465;28;20202;-38
2023/01/16 04:33:54;;;;;;;1.47;0.90;;;3.40;99.90;;;;;;4960891;28;20172;-38
2023/01/16 04:36:20;;;;;;;1.90;0.77;;;3.40;99.90;;;;;;4984141;28;20176;-38
2023/01/16 04:38:46;;;;;;;2.20;0.80;;;3.50;99.90;;;;;;4988487;28;20195;-42
2023/01/16 04:41:35;;;;;;;2.07;0.90;;;3.50;99.90;;;;;;4992832;28;20200;-37
2023/01/16 04:43:59;;;;;;;2.77;0.70;;;3.60;99.90;;;;;;4975139;28;20191;-41
2023/01/16 04:46:25;;;;;;;3.23;0.70;;;3.60;99.90;;;;;;4993033;28;20179;-37
2023/01/16 04:48:51;;;;;;;2.63;0.83;;;3.60;99.90;;;;;;4975058;28;20638;-40
2023/01/16 04:51:19;;;;;;;1.73;0.80;;;3.60;99.90;;;;;;4992653;28;20217;-37
2023/01/16 04:53:44;;;;;;;1.93;0.80;;;3.60;99.90;;;;;;4974603;28;20184;-39
2023/01/16 04:56:10;;;;;;;3.07;0.80;;;3.70;99.90;;;;;;4991693;28;20191;-40
2023/01/16 04:58:36;;;;;;;3.57;0.90;;;3.60;99.90;;;;;;4975866;28;20205;-39
2023/01/16 05:01:02;;;;;;;1.17;0.73;;;3.60;99.90;;;;;;4991087;28;20265;-40
2023/01/16 05:03:27;;;;;;;4.13;1.00;;;3.60;99.90;;;;;;5005235;28;20194;-40
2023/01/16 05:05:53;;;;;;;2.03;0.83;;;3.50;99.90;;;;;;4981427;28;20176;-39
2023/01/16 05:08:19;;;;;;;1.93;0.77;;;3.50;99.90;;;;;;4991717;28;20211;-41
2023/01/16 05:10:46;;;;;;;1.00;0.80;;;3.50;99.90;;;;;;4991942;28;20677;-39
2023/01/16 05:13:11;;;;;;;1.77;1.10;;;3.50;99.90;;;;;;4992638;28;20194;-39
2023/01/16 05:15:37;;;;;;;3.00;0.90;;;3.40;99.90;;;;;;4991278;28;20180;-38
2023/01/16 05:18:03;;;;;;;2.53;1.07;;;3.40;99.90;;;;;;4990925;28;20244;-39
2023/01/16 05:20:29;;;;;;;2.67;1.17;;;3.30;99.90;;;;;;4992036;28;20211;-36
2023/01/16 05:22:54;;;;;;;3.13;0.80;;;3.30;99.90;;;;;;4974559;28;20179;-38
2023/01/16 05:25:20;;;;;;;2.40;1.13;;;3.20;99.90;;;;;;4990731;28;20203;-38
2023/01/16 05:27:50;;;;;;;1.13;1.00;;;3.20;99.90;;;;;;4974714;28;20681;-39
2023/01/16 05:30:16;;;;;;;1.83;1.10;;;3.20;99.90;;;;;;4991615;28;20235;-40
2023/01/16 05:32:45;;;;;;;1.20;0.90;;;3.10;99.90;;;;;;4978182;28;20223;-35
2023/01/16 05:35:12;;;;;;;1.77;1.30;;;3.10;99.90;;;;;;4972995;28;20189;-40
2023/01/16 05:37:38;;;;;;;2.27;1.23;;;3.00;99.90;;;;;;4964016;28;20221;-37
2023/01/16 05:40:04;;;;;;;2.20;1.00;;;3.00;99.90;;;;;;4991433;28;20191;-40
2023/01/16 05:42:30;;;;;;;3.23;1.00;;;2.90;99.90;;;;;;4974599;28;20187;-38
2023/01/16 05:44:56;;;;;;;1.07;0.70;;;2.90;99.90;;;;;;4958590;28;20183;-39
2023/01/16 05:47:22;;;;;;;2.27;1.27;;;2.90;99.90;;;;;;4990671;28;20641;-37
2023/01/16 05:49:47;;;;;;;3.33;1.67;;;2.90;99.90;;;;;;4991204;28;20184;-38
2023/01/16 05:52:14;;;;;;;1.67;1.30;;;2.90;99.90;;;;;;4992247;28;20194;-40
2023/01/16 05:54:39;;;;;;;2.63;1.40;;;2.90;99.90;;;;;;4991741;28;20176;-38
2023/01/16 05:57:05;;;;;;;4.50;1.40;;;2.80;99.90;;;;;;4991285;28;20262;-36
2023/01/16 05:59:31;;;;;;;2.77;1.50;;;2.80;99.90;;;;;;4990290;28;20235;-38
2023/01/16 06:01:57;;;;;;;1.97;1.13;;;2.80;99.90;;;;;;4982301;28;20223;-38
2023/01/16 06:04:23;;;;;;;1.37;1.13;;;2.80;99.90;;;;;;4987288;28;20210;-39
2023/01/16 06:06:49;;;;;;;2.27;1.30;;;2.80;99.90;;;;;;4973565;28;20184;-42
2023/01/16 06:09:15;;;;;;;3.33;1.47;;;2.80;99.90;;;;;;4990052;28;20196;-37
2023/01/16 06:11:41;;;;;;;2.73;1.30;;;2.80;99.90;;;;;;4991994;28;20221;-38
2023/01/16 06:14:07;;;;;;;2.30;1.23;;;2.80;99.90;;;;;;4990718;28;20242;-39
2023/01/16 06:16:34;;;;;;;2.80;2.30;;;2.70;99.90;;;;;;4990487;28;20186;-37
2023/01/16 06:19:01;;;;;;;2.50;1.70;;;2.70;99.90;;;;;;4991389;28;20254;-36
2023/01/16 06:21:27;;;;;;;2.87;1.33;;;2.70;99.90;;;;;;4991643;28;20714;-34
2023/01/16 06:23:53;;;;;;;4.50;1.50;;;2.70;99.90;;;;;;4957679;28;20183;-36
2023/01/16 06:26:19;;;;;;;2.37;1.47;;;2.70;99.90;;;;;;4974162;28;20664;-35
2023/01/16 06:28:45;;;;;;;2.73;1.70;;;2.60;99.90;;;;;;4991361;28;20283;-39
2023/01/16 06:31:12;;;;;;;5.97;3.30;;;2.60;99.90;;;;;;4986456;28;20217;-36
2023/01/16 06:33:37;;;;;;;2.00;1.33;;;2.60;99.90;;;;;;4983765;28;20180;-39
2023/01/16 06:36:04;;;;;;;2.80;1.80;;;2.60;99.90;;;;;;4991553;28;20204;-37
2023/01/16 06:38:30;;;;;;;3.97;1.67;;;2.60;99.90;;;;;;4974315;28;20198;-38
2023/01/16 06:40:56;;;;;;;2.73;1.30;;;2.60;99.90;;;;;;4991202;28;20203;-38
2023/01/16 06:43:26;;;;;;;1.80;1.20;;;2.60;99.90;;;;;;4991027;28;20172;-37
2023/01/16 06:45:53;;;;;;;3.30;1.30;;;2.60;99.90;;;;;;4990095;28;20180;-39
2023/01/16 06:48:19;;;;;;;2.00;1.27;;;2.60;99.90;;;;;;4991299;28;20179;-39
2023/01/16 06:50:45;;;;;;;2.70;2.10;;;2.50;99.90;;;;;;4990180;28;20231;-36
2023/01/16 06:53:11;;;;;;;3.67;2.30;;;2.50;99.90;;;;;;4990063;28;20176;-39
2023/01/16 06:55:38;;;;;;;3.53;2.57;;;2.50;99.90;;;;;;4958266;28;20195;-42
2023/01/16 06:58:04;;;;;;;4.20;2.50;;;2.50;99.90;;;;;;4989086;28;20204;-40
2023/01/16 07:00:30;;;;;;;2.27;1.57;;;2.40;99.90;;;;;;4971115;28;20208;-41
2023/01/16 07:03:01;;;;;;;3.40;1.50;;;2.40;99.90;;;;;;4981786;28;20285;-41
2023/01/16 07:05:30;;;;;;;4.60;3.00;;;2.30;99.90;;;;;;4978166;28;20180;-42
2023/01/16 07:07:57;;;;;;;6.30;3.70;;;2.30;99.90;;;;;;4991281;28;20192;-42
2023/01/16 07:10:23;;;;;;;3.43;1.97;;;2.30;99.90;;;;;;4973323;28;20287;-41
2023/01/16 07:12:54;;;;;;;3.93;1.30;;;2.20;99.90;;;;;;4991353;28;20184;-41
2023/01/16 07:23:57;;;;;;;8.20;3.93;;;2.30;99.90;;;;;;4994625;28;20242;-41
2023/01/16 07:26:24;;;;;;;12.77;9.17;;;2.30;99.90;;;;;;4994736;28;20238;-41
2023/01/16 07:28:52;;;;;;;10.00;6.73;;;2.30;99.90;;;;;;4993514;28;20188;-41
2023/01/16 07:31:19;;;;;;;8.07;5.13;;;2.30;99.90;;;;;;4983013;28;20228;-41
2023/01/16 07:33:44;;;;;;;8.50;4.87;;;2.30;99.90;;;;;;4988157;28;20261;-42
2023/01/16 07:36:10;;;;;;;9.90;4.83;;;2.30;99.90;;;;;;4993563;28;20215;-42
2023/01/16 07:38:36;;;;;;;8.63;4.30;;;2.30;99.90;;;;;;4994216;28;20306;-42
2023/01/16 07:41:02;;;;;;;4.37;2.70;;;2.30;99.90;;;;;;4992774;28;20239;-40
2023/01/16 07:43:27;;;;;;;2.97;1.93;;;2.30;99.90;;;;;;4992573;28;20175;-42
2023/01/16 07:45:53;;;;;;;3.60;2.17;;;2.40;99.90;;;;;;4976896;28;20206;-42
2023/01/16 07:48:22;;;;;;;3.13;1.33;;;2.50;99.90;;;;;;4994806;28;20184;-41
2023/01/16 07:50:56;;;;;;;1.83;1.27;;;2.60;99.90;;;;;;4993868;28;20215;-40
2023/01/16 07:53:24;;;;;;;2.57;1.80;;;2.70;99.90;;;;;;4992903;28;20202;-39
2023/01/16 07:55:54;;;;;;;1.63;1.20;;;2.80;99.90;;;;;;4991681;28;20180;-39
2023/01/16 07:58:20;;;;;;;3.33;1.30;;;2.90;99.90;;;;;;4976327;28;20208;-40
2023/01/16 08:00:48;;;;;;;2.43;1.53;;;2.80;99.90;;;;;;4993148;28;20200;-41
2023/01/16 08:03:15;;;;;;;2.80;1.77;;;2.80;99.90;;;;;;4991260;28;20266;-41
2023/01/16 08:05:45;;;;;;;2.73;1.60;;;2.70;99.90;;;;;;4956913;28;20184;-38
2023/01/16 08:08:13;;;;;;;3.07;1.90;;;2.60;99.90;;;;;;4974011;28;20204;-38
2023/01/16 08:10:39;;;;;;;4.17;2.20;;;2.50;99.90;;;;;;4991726;28;20193;-39
2023/01/16 08:13:06;;;;;;;3.83;2.60;;;2.40;99.90;;;;;;4992330;28;20176;-39
2023/01/16 08:15:34;;;;;;;4.77;2.73;;;2.30;99.90;;;;;;4993507;28;20192;-37
2023/01/16 08:18:00;;;;;;;3.27;2.50;;;2.20;99.90;;;;;;4992215;28;20229;-37
2023/01/16 08:20:27;;;;;;;4.30;2.80;;;2.20;99.90;;;;;;4991793;28;20204;-35
2023/01/16 08:22:53;;;;;;;5.00;3.13;;;2.20;99.90;;;;;;4991947;28;20183;-39
2023/01/16 08:25:24;;;;;;;3.93;2.53;;;2.20;99.90;;;;;;4991995;28;20180;-39
2023/01/16 08:27:50;;;;;;;7.10;4.17;;;2.20;99.90;;;;;;4992762;28;20203;-37
2023/01/16 08:30:17;;;;;;;4.07;2.47;;;2.20;99.90;;;;;;4991558;28;20219;-39
2023/01/16 08:32:43;;;;;;;4.40;2.30;;;2.20;99.90;;;;;;4980511;28;20228;-37
2023/01/16 08:35:11;;;;;;;3.80;2.20;;;2.20;99.90;;;;;;4991862;28;20195;-39
2023/01/16 08:37:37;;;;;;;3.60;2.73;;;2.20;99.90;;;;;;4991981;28;20207;-39
2023/01/16 08:40:04;;;;;;;6.53;2.80;;;2.20;99.90;;;;;;4992162;28;20216;-39
2023/01/16 08:53:32;;;;;;;3.73;2.70;;;2.30;99.90;;;;;;4990566;28;20176;-39
2023/01/16 08:55:58;;;;;;;8.37;2.53;;;2.30;99.90;;;;;;4990995;28;20176;-40
2023/01/16 08:58:24;;;;;;;3.27;2.20;;;2.30;99.90;;;;;;4992061;28;20258;-40
2023/01/16 09:00:50;;;;;;;3.73;2.20;;;2.30;99.90;;;;;;4988294;28;20212;-36
2023/01/16 09:03:18;;;;;;;5.67;2.30;;;2.30;99.90;;;;;;4986602;28;20184;-38
2023/01/16 09:05:44;;;;;;;2.30;1.73;;;2.30;99.90;;;;;;4991384;28;20184;-37
2023/01/16 09:08:11;;;;;;;5.53;2.30;;;2.40;99.90;;;;;;4992121;28;20179;-39
2023/01/16 09:10:37;;;;;;;9.40;4.70;;;2.40;99.90;;;;;;4974253;28;20231;-39
2023/01/16 09:15:48;;;;;;;1.23;0.90;;;2.60;99.90;;;;;;5003361;28;20180;-38
2023/01/16 09:18:16;;;;;;;1.87;1.37;;;2.80;99.90;;;;;;4991011;28;20298;-40
2023/01/16 09:20:42;;;;;;;3.37;1.40;;;3.00;99.90;;;;;;4973830;28;20196;-39
2023/01/16 09:23:08;;;;;;;3.60;2.30;;;3.10;99.90;;;;;;4990555;28;20188;-38
2023/01/16 09:25:34;;;;;;;3.77;1.67;;;3.10;99.90;;;;;;4975175;28;20194;-40
2023/01/16 09:28:00;;;;;;;2.50;2.10;;;3.20;99.90;;;;;;4974304;28;20182;-41
2023/01/16 09:30:27;;;;;;;2.00;1.80;;;3.30;99.90;;;;;;4989824;28;20287;-41
2023/01/16 09:32:53;;;;;;;1.90;1.50;;;3.30;99.90;;;;;;4984225;28;20184;-40
2023/01/16 09:35:19;;;;;;;2.07;1.50;;;3.40;99.90;;;;;;4991602;28;20199;-42
2023/01/16 09:37:45;;;;;;;3.20;1.50;;;3.50;99.90;;;;;;4991071;28;20200;-42
2023/01/16 09:40:19;;;;;;;3.50;1.60;;;3.50;99.90;;;;;;4992289;28;20200;-41
2023/01/16 09:45:38;;;;;;;5.60;3.57;;;3.70;99.90;;;;;;4990832;28;20188;-41
2023/01/16 09:48:13;;;;;;;5.30;2.93;;;3.70;99.90;;;;;;4990906;28;20188;-41
2023/01/16 09:50:50;;;;;;;3.10;2.00;;;3.80;99.90;;;;;;4991945;28;20211;-41
2023/01/16 09:59:52;;;;;;;2.53;1.73;;;3.90;99.90;;;;;;4990375;28;20191;-42
2023/01/16 10:02:33;;;;;;;1.83;1.30;;;3.90;99.90;;;;;;4980349;28;20191;-42
2023/01/16 10:05:02;;;;;;;1.90;1.00;;;3.90;99.90;;;;;;4990755;28;20259;-41
2023/01/16 10:07:45;;;;;;;2.83;1.37;;;4.00;99.90;;;;;;4990844;28;20180;-42
2023/01/16 10:10:41;;;;;;;0.80;0.80;;;4.00;99.90;;;;;;4990014;28;20436;-41
2023/01/16 10:13:31;;;;;;;2.33;1.00;;;4.30;99.90;;;;;;4992190;28;20181;-39
2023/01/16 10:16:06;;;;;;;0.90;0.73;;;4.50;99.90;;;;;;4990700;28;20200;-40
2023/01/16 10:18:40;;;;;;;1.67;0.90;;;5.00;99.90;;;;;;4990570;28;20235;-41
2023/01/16 10:21:34;;;;;;;1.20;0.83;;;5.30;99.90;;;;;;4991639;28;20247;-42
2023/01/16 10:24:18;;;;;;;1.57;0.87;;;5.60;99.90;;;;;;4991733;28;20650;-42
2023/01/16 10:27:21;;;;;;;3.07;1.67;;;5.80;99.90;;;;;;4991571;28;20552;-39
2023/01/16 10:29:57;;;;;;;1.87;0.93;;;6.00;99.90;;;;;;4970038;28;20237;-38
2023/01/16 10:32:34;;;;;;;0.83;0.60;;;6.00;99.90;;;;;;4976079;28;20231;-39
2023/01/16 10:35:13;;;;;;;2.07;0.73;;;6.00;99.90;;;;;;4972719;28;20175;-40
2023/01/16 10:37:40;;;;;;;1.10;0.90;;;6.10;99.90;;;;;;4971869;28;20242;-38
2023/01/16 10:40:29;;;;;;;1.00;0.80;;;6.00;99.90;;;;;;4972068;28;20206;-38
2023/01/16 10:49:25;;;;;;;2.33;1.43;;;6.00;99.90;;;;;;5010930;28;20182;-39
2023/01/16 10:51:34;;;;;;;1.67;0.87;;;6.00;99.90;;;;;;4993244;28;20231;-40
2023/01/16 10:54:02;;;;;;;2.00;0.90;;;6.00;99.90;;;;;;5014198;28;20192;-38
2023/01/16 10:56:28;;;;;;;1.37;0.97;;;6.00;99.90;;;;;;5015052;28;20194;-37
2023/01/16 10:58:54;;;;;;;1.97;0.80;;;5.90;99.90;;;;;;4971588;28;20229;-41
2023/01/16 11:01:24;;;;;;;1.57;1.00;;;5.90;99.90;;;;;;4994481;28;20674;-37
2023/01/16 11:03:53;;;;;;;3.97;1.60;;;5.80;99.90;;;;;;5009445;28;20185;-37
2023/01/16 11:06:26;;;;;;;3.33;1.80;;;5.70;99.90;;;;;;4977580;28;20176;-37
2023/01/16 11:09:04;;;;;;;1.33;0.70;;;5.60;99.90;;;;;;4975643;28;20210;-38
2023/01/16 11:19:59;;;;;;;0.83;0.70;;;5.50;99.90;;;;;;4992484;28;20294;-41
2023/01/16 11:22:27;;;;;;;0.93;0.60;;;5.50;99.90;;;;;;4977130;28;20181;-40
2023/01/16 11:25:00;;;;;;;5.47;0.70;;;5.40;99.90;;;;;;4977340;28;20186;-36
2023/01/16 11:27:36;;;;;;;1.00;0.87;;;5.40;99.90;;;;;;4977263;28;20273;-39
2023/01/16 11:30:14;;;;;;;1.23;0.83;;;5.40;99.90;;;;;;4994263;28;20201;-38
2023/01/16 11:32:47;;;;;;;1.53;0.80;;;5.40;99.90;;;;;;4984879;28;20591;-39
2023/01/16 11:35:15;;;;;;;1.80;1.27;;;5.40;99.90;;;;;;4977036;28;20187;-39
2023/01/16 11:37:44;;;;;;;2.47;1.50;;;5.40;99.90;;;;;;4981022;28;20219;-41
2023/01/16 11:40:21;;;;;;;1.43;1.10;;;5.50;99.90;;;;;;4989633;28;20206;-39
2023/01/16 11:46:03;;;;;;;0.67;0.67;;;5.50;99.90;;;;;;4993223;28;20178;-41
2023/01/16 11:48:42;;;;;;;2.40;1.27;;;5.50;99.90;;;;;;4992902;28;20250;-42
2023/01/16 11:51:14;;;;;;;3.13;1.50;;;5.50;99.90;;;;;;4992785;28;20196;-42
2023/01/16 11:53:43;;;;;;;1.53;0.93;;;5.50;99.90;;;;;;4994100;28;20652;-42
2023/01/16 11:56:18;;;;;;;2.93;1.40;;;5.60;99.90;;;;;;4992870;28;20259;-43
2023/01/16 11:59:14;;;;;;;2.40;1.20;;;5.60;99.90;;;;;;4980913;28;20216;-42
2023/01/16 12:04:36;;;;;;;1.90;1.70;;;5.70;99.90;;;;;;4973927;28;20240;-42
2023/01/16 12:07:27;;;;;;;2.33;1.20;;;5.80;99.90;;;;;;4983824;28;20195;-40
2023/01/16 12:09:57;;;;;;;2.70;1.67;;;5.80;99.90;;;;;;4992458;28;20187;-38
2023/01/16 12:15:46;;;;;;;12.37;5.97;;;5.90;99.90;;;;;;4993729;28;20184;-39
2023/01/16 12:18:42;;;;;;;2.70;1.63;;;6.00;99.90;;;;;;4993467;28;20212;-40
2023/01/16 12:21:34;;;;;;;2.03;1.10;;;6.00;99.90;;;;;;4973103;28;20262;-41
2023/01/16 12:24:22;;;;;;;2.47;1.20;;;6.00;99.90;;;;;;4970613;28;20193;-41
2023/01/16 12:27:17;;;;;;;1.73;0.90;;;6.10;99.90;;;;;;4991774;28;20187;-41
2023/01/16 12:30:07;;;;;;;1.97;1.10;;;6.10;99.90;;;;;;4959481;28;20183;-40
2023/01/16 12:32:38;;;;;;;1.13;0.90;;;6.20;99.90;;;;;;4983626;28;20192;-40
2023/01/16 12:35:23;;;;;;;3.80;2.20;;;6.20;99.90;;;;;;4972690;28;20179;-40
2023/01/16 12:37:53;;;;;;;1.57;1.20;;;6.20;99.90;;;;;;4983947;28;20209;-39
2023/01/16 12:40:31;;;;;;;1.30;0.90;;;6.20;99.90;;;;;;4991800;28;20205;-40
2023/01/16 12:43:20;;;;;;;1.60;0.77;;;6.30;99.90;;;;;;4991640;28;20181;-40
2023/01/16 12:45:49;;;;;;;5.43;2.80;;;6.30;99.90;;;;;;4993226;28;20187;-35
2023/01/16 12:48:40;;;;;;;7.33;2.27;;;6.30;99.90;;;;;;4992183;28;20270;-40
2023/01/16 12:51:27;;;;;;;4.93;2.40;;;6.30;99.90;;;;;;4982275;28;20218;-41
2023/01/16 12:54:45;;;;;;;3.47;2.13;;;6.40;99.90;;;;;;4975347;28;20182;-41
2023/01/16 12:57:20;;;;;;;2.10;1.40;;;6.40;99.90;;;;;;4965670;28;20256;-41
2023/01/16 13:00:20;;;;;;;6.37;3.00;;;6.40;99.90;;;;;;4978451;28;20194;-41
2023/01/16 13:03:02;;;;;;;0.80;0.80;;;6.50;99.90;;;;;;4975743;28;20293;-39
2023/01/16 13:05:33;;;;;;;1.93;1.20;;;6.50;99.90;;;;;;5001406;28;20184;-41
2023/01/16 13:08:23;;;;;;;1.67;1.17;;;6.60;99.90;;;;;;4965746;28;20180;-41
2023/01/16 13:13:52;;;;;;;2.93;1.70;;;6.90;99.90;;;;;;4987696;28;20203;-39
2023/01/16 13:16:34;;;;;;;1.30;0.90;;;6.90;99.90;;;;;;4990077;28;20221;-38
2023/01/16 13:19:11;;;;;;;2.50;1.00;;;7.00;99.90;;;;;;4960161;28;20266;-41
2023/01/16 13:22:05;;;;;;;0.60;0.60;;;7.10;99.90;;;;;;4984232;28;20203;-40
2023/01/16 13:24:48;;;;;;;1.10;0.60;;;7.20;99.90;;;;;;4986509;28;20204;-40
2023/01/16 13:27:20;;;;;;;0.80;0.80;;;7.20;99.90;;;;;;4985909;28;20190;-41
2023/01/16 13:29:55;;;;;;;0.67;0.67;;;7.20;99.90;;;;;;4983302;28;20185;-41
2023/01/16 13:32:32;;;;;;;0.50;0.50;;;7.30;99.90;;;;;;4990270;28;20234;-41
2023/01/16 13:35:24;;;;;;;0.73;0.60;;;7.40;99.90;;;;;;4989945;28;20187;-40
2023/01/16 13:37:59;;;;;;;1.70;1.10;;;7.40;99.90;;;;;;4981023;28;20199;-42
2023/01/16 13:40:49;;;;;;;1.20;0.70;;;7.30;99.90;;;;;;4976058;28;20210;-40
2023/01/16 13:46:12;;;;;;;0.90;0.50;;;7.20;99.90;;;;;;4992490;28;20245;-42
2023/01/16 13:48:38;;;;;;;0.80;0.50;;;7.00;99.90;;;;;;4988690;28;20627;-43
2023/01/16 13:51:16;;;;;;;1.67;0.60;;;6.80;99.90;;;;;;4975347;28;20218;-42
2023/01/16 13:53:49;;;;;;;0.83;0.80;;;6.70;99.90;;;;;;4973587;28;20267;-43
2023/01/16 13:56:22;;;;;;;0.50;0.50;;;6.60;99.90;;;;;;4992850;28;20653;-42
2023/01/16 13:58:55;;;;;;;1.07;0.60;;;6.60;99.90;;;;;;4992200;28;20248;-42
2023/01/16 14:01:41;;;;;;;1.93;1.10;;;6.50;99.90;;;;;;4984944;28;20223;-41
2023/01/16 14:04:16;;;;;;;0.93;0.70;;;6.50;99.90;;;;;;4978867;28;20254;-39
2023/01/16 14:09:04;;;;;;;1.80;1.20;;;6.40;99.90;;;;;;4974753;28;20183;-40
2023/01/16 14:10:18;;;;;;;1.23;0.80;;;6.40;99.90;;;;;;4985295;28;20187;-40
2023/01/16 14:13:26;;;;;;;1.10;0.83;;;6.50;99.90;;;;;;4975452;28;20179;-42
2023/01/16 14:19:20;;;;;;;1.03;0.80;;;6.60;99.90;;;;;;4981063;28;20211;-43
2023/01/16 14:24:00;;;;;;;2.50;1.13;;;6.70;99.90;;;;;;4978885;28;20200;-38
2023/01/16 14:24:56;;;;;;;0.70;0.70;;;6.70;99.90;;;;;;4992487;28;20191;-39
2023/01/16 14:27:34;;;;;;;1.33;0.80;;;6.60;99.90;;;;;;4988132;28;20218;-40
2023/01/16 14:30:12;;;;;;;1.50;0.90;;;6.60;99.90;;;;;;4981979;28;20233;-41
2023/01/16 14:32:50;;;;;;;1.37;0.80;;;6.60;99.90;;;;;;4987231;28;20665;-42